createdAt,value
2018-03-21T00:01:49.340Z,1.00
2018-03-21T00:04:17.413Z,1.10
2018-03-21T00:06:45.469Z,1.20
2018-03-21T00:09:13.535Z,1.00
2018-03-21T00:11:41.600Z,0.80
2018-03-21T00:14:09.643Z,0.90
2018-03-21T00:16:37.780Z,1.10
2018-03-21T00:19:05.843Z,1.10
2018-03-21T00:21:35.376Z,0.90
2018-03-21T00:24:03.458Z,0.90
2018-03-21T00:26:31.513Z,0.80
2018-03-21T00:29:00.348Z,1.20
2018-03-21T00:31:28.430Z,1.20
2018-03-21T00:33:57.273Z,1.10
2018-03-21T00:36:25.364Z,1.30
2018-03-21T00:38:53.424Z,1.20
2018-03-21T00:41:21.478Z,1.20
2018-03-21T00:43:49.541Z,1.20
2018-03-21T00:46:18.354Z,1.20
2018-03-21T00:48:46.412Z,1.10
2018-03-21T00:51:14.468Z,1.20
2018-03-21T00:53:42.688Z,1.20
2018-03-21T00:56:10.751Z,1.30
2018-03-21T00:58:38.848Z,1.10
2018-03-21T01:01:06.904Z,1.10
2018-03-21T01:03:35.952Z,1.00
2018-03-21T01:06:04.769Z,0.90
2018-03-21T01:08:32.901Z,0.90
2018-03-21T01:11:00.950Z,1.00
2018-03-21T01:13:29.244Z,0.90
2018-03-21T01:15:57.272Z,0.90
2018-03-21T01:18:25.344Z,0.90
2018-03-21T01:20:54.472Z,0.80
2018-03-21T01:23:23.331Z,0.90
2018-03-21T01:25:51.402Z,0.90
2018-03-21T01:28:19.479Z,0.70
2018-03-21T01:30:47.523Z,0.70
2018-03-21T01:33:16.335Z,0.80
2018-03-21T01:35:45.222Z,0.80
2018-03-21T01:38:13.247Z,0.80
2018-03-21T01:40:41.416Z,0.80
2018-03-21T01:43:09.473Z,0.80
2018-03-21T01:45:37.539Z,0.70
2018-03-21T01:48:06.606Z,0.70
2018-03-21T01:50:34.695Z,0.70
2018-03-21T01:53:10.208Z,1.00
2018-03-21T01:55:39.080Z,0.90
2018-03-21T01:58:07.152Z,0.90
2018-03-21T02:00:35.963Z,0.70
2018-03-21T02:03:04.714Z,0.70
2018-03-21T02:05:32.839Z,0.70
2018-03-21T02:08:00.887Z,0.80
2018-03-21T02:10:29.028Z,0.80
2018-03-21T02:12:57.100Z,0.70
2018-03-21T02:15:25.160Z,0.70
2018-03-21T02:17:53.245Z,0.60
2018-03-21T02:20:21.320Z,0.70
2018-03-21T02:22:49.411Z,0.80
2018-03-21T02:25:17.428Z,0.90
2018-03-21T02:27:46.329Z,1.10
2018-03-21T02:30:14.404Z,1.00
2018-03-21T02:32:43.039Z,1.00
2018-03-21T02:35:11.169Z,0.90
2018-03-21T02:37:39.227Z,1.00
2018-03-21T02:40:07.323Z,0.80
2018-03-21T02:42:35.385Z,0.70
2018-03-21T02:45:03.495Z,0.70
2018-03-21T02:47:31.556Z,0.80
2018-03-21T02:49:59.619Z,0.80
2018-03-21T02:52:28.431Z,0.60
2018-03-21T02:54:57.274Z,0.60
2018-03-21T02:57:25.341Z,0.50
2018-03-21T02:59:53.511Z,0.40
2018-03-21T03:02:21.565Z,0.50
2018-03-21T03:04:49.631Z,0.50
2018-03-21T03:07:17.682Z,0.50
2018-03-21T03:09:45.750Z,0.50
2018-03-21T03:12:13.857Z,0.40
2018-03-21T03:14:41.902Z,0.30
2018-03-21T03:17:10.772Z,0.40
2018-03-21T03:19:38.828Z,0.40
2018-03-21T03:22:06.904Z,0.50
2018-03-21T03:24:35.129Z,0.60
2018-03-21T03:27:03.197Z,0.30
2018-03-21T03:29:31.284Z,0.30
2018-03-21T03:31:59.336Z,0.40
2018-03-21T03:34:27.420Z,0.50
2018-03-21T03:36:56.299Z,0.40
2018-03-21T03:39:24.351Z,0.30
2018-03-21T03:41:52.425Z,0.20
2018-03-21T03:44:20.504Z,0.00
2018-03-21T03:46:48.597Z,-0.10
2018-03-21T03:49:16.652Z,-0.10
2018-03-21T03:51:44.724Z,0.00
2018-03-21T03:54:12.822Z,-0.30
2018-03-21T03:56:40.895Z,-0.20
2018-03-21T03:59:10.409Z,-0.10
2018-03-21T04:01:38.611Z,-0.30
2018-03-21T04:04:07.583Z,-0.30
2018-03-21T04:06:36.544Z,-0.30
2018-03-21T04:09:04.773Z,-0.30
2018-03-21T04:11:32.832Z,-0.40
2018-03-21T04:14:01.687Z,-0.50
2018-03-21T04:16:29.770Z,-0.50
2018-03-21T04:18:57.867Z,-0.40
2018-03-21T04:21:25.960Z,-0.50
2018-03-21T04:23:54.058Z,-0.30
2018-03-21T04:26:22.122Z,-0.20
2018-03-21T04:28:50.244Z,-0.10
2018-03-21T04:31:18.275Z,-0.10
2018-03-21T04:33:46.386Z,-0.30
2018-03-21T04:36:14.444Z,-0.40
2018-03-21T04:38:42.566Z,-0.60
2018-03-21T04:41:10.637Z,-0.70
2018-03-21T04:43:39.376Z,-0.70
2018-03-21T04:46:07.431Z,-0.80
2018-03-21T04:48:36.263Z,-0.90
2018-03-21T04:51:05.566Z,-1.00
2018-03-21T04:53:33.624Z,-0.90
2018-03-21T04:56:01.683Z,-1.00
2018-03-21T04:58:29.752Z,-0.90
2018-03-21T05:00:57.923Z,-0.90
2018-03-21T05:03:25.992Z,-0.90
2018-03-21T05:05:54.052Z,-0.90
2018-03-21T05:08:22.902Z,-1.00
2018-03-21T05:10:51.736Z,-1.00
2018-03-21T05:13:19.790Z,-1.00
2018-03-21T05:15:47.344Z,-1.10
2018-03-21T05:18:14.903Z,-1.10
2018-03-21T05:20:43.208Z,-0.90
2018-03-21T05:23:11.588Z,-0.90
2018-03-21T05:25:39.133Z,-1.00
2018-03-21T05:28:07.466Z,-1.10
2018-03-21T05:30:34.990Z,-1.10
2018-03-21T05:33:03.315Z,-1.20
2018-03-21T05:35:30.868Z,-1.20
2018-03-21T05:37:58.457Z,-1.00
2018-03-21T05:40:25.995Z,-1.10
2018-03-21T05:42:54.431Z,-1.10
2018-03-21T05:45:21.926Z,-1.10
2018-03-21T05:47:49.539Z,-1.30
2018-03-21T05:50:17.848Z,-1.40
2018-03-21T05:52:45.408Z,-1.40
2018-03-21T05:55:13.471Z,-1.30
2018-03-21T05:57:42.303Z,-1.40
2018-03-21T06:00:10.378Z,-1.40
2018-03-21T06:02:38.439Z,-1.50
2018-03-21T06:05:07.298Z,-1.50
2018-03-21T06:07:35.445Z,-1.50
2018-03-21T06:10:03.477Z,-1.40
2018-03-21T06:12:32.537Z,-1.40
2018-03-21T06:15:00.599Z,-1.30
2018-03-21T06:17:29.441Z,-1.20
2018-03-21T06:19:57.551Z,-1.20
2018-03-21T06:22:25.653Z,-1.10
2018-03-21T06:24:53.745Z,-0.90
2018-03-21T06:27:21.828Z,-0.80
2018-03-21T06:29:49.911Z,-0.60
2018-03-21T06:32:18.962Z,-0.50
2018-03-21T06:34:47.044Z,-0.50
2018-03-21T06:37:15.160Z,-0.40
2018-03-21T06:39:43.217Z,-0.40
2018-03-21T06:42:11.295Z,-0.30
2018-03-21T06:44:39.444Z,-0.10
2018-03-21T06:47:07.767Z,0.20
2018-03-21T06:49:35.850Z,0.30
2018-03-21T06:52:03.937Z,0.30
2018-03-21T06:54:31.985Z,0.30
2018-03-21T06:57:00.104Z,0.50
2018-03-21T06:59:28.210Z,0.50
2018-03-21T07:01:56.274Z,0.40
2018-03-21T07:04:24.364Z,0.50
2018-03-21T07:06:52.440Z,0.50
2018-03-21T07:09:20.528Z,0.60
2018-03-21T07:11:48.589Z,0.70
2018-03-21T07:14:28.534Z,0.60
2018-03-21T07:16:56.639Z,0.70
2018-03-21T07:19:24.711Z,0.90
2018-03-21T07:21:52.777Z,1.00
2018-03-21T07:24:20.955Z,1.20
2018-03-21T07:26:50.224Z,1.10
2018-03-21T07:29:18.281Z,1.00
2018-03-21T07:31:46.462Z,1.00
2018-03-21T07:34:15.281Z,1.30
2018-03-21T07:36:43.357Z,1.30
2018-03-21T07:39:11.478Z,1.40
2018-03-21T07:41:39.560Z,1.50
2018-03-21T07:44:07.629Z,1.40
2018-03-21T07:46:35.683Z,1.40
2018-03-21T07:49:04.513Z,1.60
2018-03-21T07:51:32.584Z,1.60
2018-03-21T07:54:00.657Z,1.50
2018-03-21T07:56:28.697Z,1.60
2018-03-21T07:58:56.756Z,1.70
2018-03-21T08:01:24.802Z,1.50
2018-03-21T08:03:52.856Z,1.50
2018-03-21T08:06:20.906Z,1.60
2018-03-21T08:08:48.955Z,1.60
2018-03-21T08:11:17.012Z,1.60
2018-03-21T08:13:45.080Z,1.60
2018-03-21T08:16:13.265Z,1.60
2018-03-21T08:18:41.324Z,1.50
2018-03-21T08:21:09.380Z,1.60
2018-03-21T08:23:37.424Z,1.60
2018-03-21T08:26:05.470Z,1.50
2018-03-21T08:28:33.519Z,1.60
2018-03-21T08:31:01.567Z,1.60
2018-03-21T08:33:29.686Z,1.60
2018-03-21T08:35:57.750Z,1.60
2018-03-21T08:38:25.788Z,1.60
2018-03-21T08:40:53.956Z,1.70
2018-03-21T08:43:22.057Z,1.80
2018-03-21T08:45:50.980Z,2.00
2018-03-21T08:48:19.032Z,1.90
2018-03-21T08:50:47.835Z,2.00
2018-03-21T08:53:15.900Z,2.00
2018-03-21T08:55:44.157Z,2.30
2018-03-21T08:58:12.175Z,2.60
2018-03-21T09:00:40.389Z,2.80
2018-03-21T09:03:08.450Z,3.00
2018-03-21T09:05:38.292Z,3.20
2018-03-21T09:08:08.612Z,3.30
2018-03-21T09:10:36.673Z,3.20
2018-03-21T09:13:04.770Z,3.20
2018-03-21T09:15:33.557Z,3.40
2018-03-21T09:18:01.622Z,3.40
2018-03-21T09:20:29.674Z,3.40
2018-03-21T09:22:57.723Z,3.40
2018-03-21T09:25:25.804Z,3.30
2018-03-21T09:27:53.855Z,3.30
2018-03-21T09:30:26.630Z,3.10
2018-03-21T09:32:55.220Z,3.20
2018-03-21T09:35:23.366Z,3.30
2018-03-21T09:37:51.414Z,3.40
2018-03-21T09:40:19.487Z,3.20
2018-03-21T09:42:47.590Z,3.60
2018-03-21T09:45:18.348Z,8.40
2018-03-21T09:47:46.580Z,8.40
2018-03-21T09:50:14.643Z,11.10
2018-03-21T09:52:42.686Z,14.00
2018-03-21T09:55:11.524Z,17.60
2018-03-21T09:57:39.760Z,17.60
2018-03-21T10:00:07.835Z,19.00
2018-03-21T10:02:35.915Z,19.50
2018-03-21T10:05:03.995Z,18.30
2018-03-21T10:07:32.044Z,17.50
2018-03-21T10:10:00.107Z,14.80
2018-03-21T10:12:28.242Z,14.80
2018-03-21T10:14:56.360Z,14.80
2018-03-21T10:17:24.392Z,15.60
2018-03-21T10:19:52.577Z,14.60
2018-03-21T10:22:20.585Z,13.90
2018-03-21T10:24:48.731Z,12.60
2018-03-21T10:27:16.768Z,10.70
2018-03-21T10:29:44.843Z,11.50
2018-03-21T10:32:12.909Z,11.40
2018-03-21T10:34:40.990Z,10.80
2018-03-21T10:37:09.034Z,12.00
2018-03-21T10:39:37.114Z,12.00
2018-03-21T10:42:05.290Z,12.90
2018-03-21T10:44:34.124Z,12.90
2018-03-21T10:47:02.175Z,12.80
2018-03-21T10:49:31.033Z,14.70
2018-03-21T10:51:59.949Z,14.60
2018-03-21T10:54:28.052Z,14.50
2018-03-21T10:56:56.891Z,13.50
2018-03-21T10:59:24.963Z,14.70
2018-03-21T11:01:59.279Z,16.10
2018-03-21T11:04:27.305Z,16.30
2018-03-21T11:06:55.392Z,16.30
2018-03-21T11:09:23.455Z,15.60
2018-03-21T11:11:51.596Z,15.10
2018-03-21T11:14:19.636Z,16.20
2018-03-21T11:16:47.707Z,17.70
2018-03-21T11:19:15.782Z,17.50
2018-03-21T11:21:43.856Z,17.10
2018-03-21T11:24:11.914Z,16.40
2018-03-21T11:26:40.742Z,15.40
2018-03-21T11:29:08.805Z,15.40
2018-03-21T11:31:36.847Z,14.60
2018-03-21T11:34:04.914Z,14.60
2018-03-21T11:36:33.075Z,14.50
2018-03-21T11:39:01.300Z,13.90
2018-03-21T11:41:30.107Z,13.10
2018-03-21T11:43:58.267Z,13.00
2018-03-21T11:46:26.516Z,13.90
2018-03-21T11:48:55.517Z,16.80
2018-03-21T11:51:23.745Z,16.70
2018-03-21T11:53:52.318Z,17.80
2018-03-21T11:56:20.692Z,18.50
2018-03-21T11:58:48.953Z,19.00
2018-03-21T12:01:17.161Z,19.40
2018-03-21T12:03:45.420Z,20.10
2018-03-21T12:06:13.625Z,18.00
2018-03-21T12:08:41.741Z,17.10
2018-03-21T12:11:09.969Z,18.90
2018-03-21T12:13:38.070Z,18.80
2018-03-21T12:16:06.204Z,18.70
2018-03-21T12:18:34.302Z,18.70
2018-03-21T12:21:02.509Z,18.40
2018-03-21T12:23:31.399Z,19.20
2018-03-21T12:26:01.483Z,19.10
2018-03-21T12:28:29.646Z,19.20
2018-03-21T12:30:57.772Z,19.00
2018-03-21T12:33:25.955Z,18.70
2018-03-21T12:35:54.055Z,18.30
2018-03-21T12:38:22.174Z,18.50
2018-03-21T12:40:50.416Z,18.50
2018-03-21T12:43:18.700Z,16.80
2018-03-21T12:45:46.994Z,16.20
2018-03-21T12:48:15.143Z,16.10
2018-03-21T12:50:43.240Z,16.00
2018-03-21T12:53:12.100Z,14.60
2018-03-21T12:55:40.253Z,14.50
2018-03-21T12:58:08.311Z,14.60
2018-03-21T13:00:36.461Z,14.40
2018-03-21T13:03:04.639Z,13.30
2018-03-21T13:05:32.868Z,13.70
2018-03-21T13:08:01.785Z,14.80
2018-03-21T13:10:29.912Z,14.80
2018-03-21T13:12:58.119Z,15.90
2018-03-21T13:15:26.968Z,16.00
2018-03-21T13:17:55.442Z,16.00
2018-03-21T13:20:24.524Z,15.90
2018-03-21T13:22:52.696Z,15.70
2018-03-21T13:25:20.865Z,16.00
2018-03-21T13:27:49.026Z,16.00
2018-03-21T13:30:17.160Z,16.10
2018-03-21T13:32:45.308Z,16.00
2018-03-21T13:35:13.433Z,16.10
2018-03-21T13:37:42.318Z,15.60
2018-03-21T13:40:10.663Z,15.60
2018-03-21T13:42:38.873Z,15.20
2018-03-21T13:45:07.022Z,14.50
2018-03-21T13:47:35.233Z,14.40
2018-03-21T13:50:03.457Z,12.60
2018-03-21T13:52:31.621Z,12.70
2018-03-21T13:54:59.894Z,12.00
2018-03-21T13:57:28.076Z,11.80
2018-03-21T13:59:56.191Z,12.00
2018-03-21T14:02:26.169Z,12.40
2018-03-21T14:04:56.291Z,12.70
2018-03-21T14:07:25.513Z,12.60
2018-03-21T14:09:53.638Z,12.80
2018-03-21T14:12:22.591Z,13.00
2018-03-21T14:14:51.534Z,12.90
2018-03-21T14:17:20.578Z,12.70
2018-03-21T14:19:48.744Z,12.70
2018-03-21T14:22:16.936Z,12.30
2018-03-21T14:24:45.148Z,12.00
2018-03-21T14:27:14.070Z,11.00
2018-03-21T14:29:42.951Z,9.80
2018-03-21T14:32:11.146Z,9.80
2018-03-21T14:34:39.326Z,9.40
2018-03-21T14:37:07.506Z,9.30
2018-03-21T14:39:35.690Z,8.80
2018-03-21T14:42:04.840Z,9.10
2018-03-21T14:44:33.417Z,9.20
2018-03-21T14:47:02.665Z,9.40
2018-03-21T14:49:31.562Z,9.80
2018-03-21T14:52:00.355Z,9.80
2018-03-21T14:54:28.420Z,9.80
2018-03-21T14:56:56.484Z,10.20
2018-03-21T14:59:25.519Z,10.30
2018-03-21T15:01:54.473Z,10.40
2018-03-21T15:04:23.026Z,10.40
2018-03-21T15:06:51.075Z,10.50
2018-03-21T15:12:23.117Z,10.20
2018-03-21T15:17:32.634Z,9.30
2018-03-21T15:20:06.762Z,9.40
2018-03-21T15:22:39.037Z,9.30
2018-03-21T15:25:12.351Z,9.30
2018-03-21T15:27:45.292Z,9.40
2018-03-21T15:30:15.829Z,9.20
2018-03-21T15:32:45.099Z,9.00
2018-03-21T15:35:14.898Z,8.90
2018-03-21T15:37:48.042Z,8.70
2018-03-21T15:40:18.553Z,9.10
2018-03-21T15:42:49.733Z,8.70
2018-03-21T15:45:21.437Z,8.70
2018-03-21T15:47:53.744Z,9.10
2018-03-21T15:50:23.158Z,9.20
2018-03-21T15:52:53.256Z,9.10
2018-03-21T15:55:23.040Z,8.80
2018-03-21T15:57:53.372Z,9.00
2018-03-21T16:00:21.877Z,8.90
2018-03-21T16:02:51.938Z,9.40
2018-03-21T16:05:46.043Z,9.10
2018-03-21T16:08:20.075Z,8.90
2018-03-21T16:10:48.647Z,9.10
2018-03-21T16:13:20.130Z,8.90
2018-03-21T16:15:50.076Z,8.90
2018-03-21T16:18:20.231Z,8.90
2018-03-21T16:21:00.409Z,8.40
2018-03-21T16:23:37.888Z,8.40
2018-03-21T16:26:06.960Z,8.40
2018-03-21T16:28:35.704Z,8.30
2018-03-21T16:31:06.736Z,8.30
2018-03-21T16:33:38.638Z,8.40
2018-03-21T16:36:10.538Z,8.40
2018-03-21T16:38:39.234Z,8.30
2018-03-21T16:47:05.094Z,7.70
2018-03-21T16:49:45.939Z,7.30
2018-03-21T16:52:16.099Z,7.30
2018-03-21T16:54:45.749Z,7.00
2018-03-21T16:57:15.082Z,6.70
2018-03-21T16:59:43.324Z,6.70
2018-03-21T17:02:23.594Z,6.50
2018-03-21T17:08:03.463Z,6.40
2018-03-21T17:10:31.615Z,6.20
2018-03-21T17:13:00.477Z,6.10
2018-03-21T17:15:28.552Z,6.10
2018-03-21T17:17:56.595Z,5.90
2018-03-21T17:20:24.668Z,5.70
2018-03-21T17:22:52.777Z,5.80
2018-03-21T17:25:20.856Z,5.60
2018-03-21T17:27:48.913Z,5.60
2018-03-21T17:30:17.000Z,5.60
2018-03-21T17:32:45.063Z,5.60
2018-03-21T17:35:13.135Z,5.40
2018-03-21T17:37:41.194Z,5.20
2018-03-21T17:40:10.079Z,4.80
2018-03-21T17:42:38.177Z,4.80
2018-03-21T17:45:06.211Z,4.80
2018-03-21T17:47:34.282Z,4.50
2018-03-21T17:50:02.347Z,4.30
2018-03-21T17:52:30.419Z,4.30
2018-03-21T17:55:00.080Z,4.30
2018-03-21T17:57:28.142Z,4.20
2018-03-21T17:59:56.321Z,4.20
2018-03-21T18:02:24.374Z,4.10
2018-03-21T18:04:52.440Z,4.00
2018-03-21T18:07:20.513Z,3.90
2018-03-21T18:09:48.566Z,3.90
2018-03-21T18:12:16.651Z,3.70
2018-03-21T18:14:44.726Z,3.60
2018-03-21T18:17:12.776Z,3.50
2018-03-21T18:19:40.845Z,3.50
2018-03-21T18:22:08.991Z,3.50
2018-03-21T18:24:37.061Z,3.20
2018-03-21T18:27:05.125Z,3.20
2018-03-21T18:29:34.000Z,3.00
2018-03-21T18:32:02.104Z,3.00
2018-03-21T18:34:30.127Z,3.00
2018-03-21T18:36:58.249Z,3.10
2018-03-21T18:39:26.312Z,3.10
2018-03-21T18:41:54.358Z,2.90
2018-03-21T18:44:22.430Z,2.80
2018-03-21T18:46:51.294Z,2.70
2018-03-21T18:49:19.358Z,2.60
2018-03-21T18:51:47.448Z,2.60
2018-03-21T18:54:27.341Z,2.50
2018-03-21T18:56:55.431Z,2.50
2018-03-21T18:59:23.514Z,2.50
2018-03-21T19:01:53.495Z,2.50
2018-03-21T19:04:22.497Z,2.50
2018-03-21T19:06:50.566Z,2.60
2018-03-21T19:09:18.871Z,2.50
2018-03-21T19:11:49.007Z,2.40
2018-03-21T19:14:17.588Z,2.30
2018-03-21T19:16:48.414Z,2.10
2018-03-21T19:19:17.766Z,2.20
2018-03-21T19:21:46.214Z,2.20
2018-03-21T19:24:15.622Z,2.30
2018-03-21T19:26:44.487Z,2.10
2018-03-21T19:29:13.286Z,2.20
2018-03-21T19:31:41.365Z,2.20
2018-03-21T19:34:09.416Z,2.20
2018-03-21T19:36:37.485Z,2.20
2018-03-21T19:39:07.762Z,2.00
2018-03-21T19:41:35.839Z,2.00
2018-03-21T19:44:04.577Z,2.10
2018-03-21T19:46:32.696Z,2.00
2018-03-21T19:49:01.163Z,2.00
2018-03-21T19:51:29.262Z,2.00
2018-03-21T19:53:57.339Z,2.10
2018-03-21T19:56:25.397Z,2.20
2018-03-21T19:58:53.468Z,2.30
2018-03-21T20:01:21.539Z,2.30
2018-03-21T20:03:49.601Z,2.20
2018-03-21T20:06:18.526Z,2.20
2018-03-21T20:08:47.518Z,2.20
2018-03-21T20:11:15.604Z,2.00
2018-03-21T20:13:43.669Z,2.00
2018-03-21T20:16:12.493Z,1.70
2018-03-21T20:18:40.580Z,1.70
2018-03-21T20:21:08.644Z,1.60
2018-03-21T20:23:37.592Z,1.50
2018-03-21T20:26:05.678Z,1.40
2018-03-21T20:28:33.764Z,1.40
2018-03-21T20:31:01.833Z,1.40
2018-03-21T20:33:29.942Z,1.40
2018-03-21T20:35:58.001Z,1.40
2018-03-21T20:38:26.104Z,1.30
2018-03-21T20:40:54.193Z,1.20
2018-03-21T20:43:22.260Z,1.20
2018-03-21T20:45:50.335Z,1.10
2018-03-21T20:48:18.422Z,1.20
2018-03-21T20:50:46.518Z,1.00
2018-03-21T20:53:14.594Z,1.00
2018-03-21T20:55:42.654Z,1.00
2018-03-21T20:58:10.725Z,0.80
2018-03-21T21:00:38.820Z,1.00
2018-03-21T21:03:06.906Z,1.10
2018-03-21T21:05:35.009Z,1.10
2018-03-21T21:08:03.214Z,1.00
2018-03-21T21:10:31.284Z,0.90
2018-03-21T21:12:59.362Z,0.80
2018-03-21T21:15:27.668Z,0.70
2018-03-21T21:17:55.743Z,0.70
2018-03-21T21:20:23.796Z,0.50
2018-03-21T21:22:51.866Z,0.50
2018-03-21T21:25:19.926Z,0.50
2018-03-21T21:27:48.771Z,0.60
2018-03-21T21:30:16.835Z,0.60
2018-03-21T21:32:44.908Z,0.70
2018-03-21T21:35:12.970Z,0.80
2018-03-21T21:37:42.009Z,0.70
2018-03-21T21:40:10.113Z,0.70
2018-03-21T21:42:38.194Z,0.50
2018-03-21T21:45:06.292Z,0.60
2018-03-21T21:47:34.340Z,0.40
2018-03-21T21:50:02.464Z,0.40
2018-03-21T21:52:30.527Z,0.30
2018-03-21T21:54:59.361Z,0.30
2018-03-21T21:57:27.439Z,0.30
2018-03-21T21:59:55.496Z,0.50
2018-03-21T22:02:23.567Z,0.60
2018-03-21T22:04:51.758Z,0.60
2018-03-21T22:07:19.820Z,0.40
2018-03-21T22:09:47.916Z,0.40
2018-03-21T22:12:21.764Z,0.40
2018-03-21T22:14:49.896Z,0.30
2018-03-21T22:17:17.970Z,0.40
2018-03-21T22:19:46.139Z,0.20
2018-03-21T22:22:14.366Z,0.20
2018-03-21T22:24:42.517Z,0.20
2018-03-21T22:27:10.557Z,0.10
2018-03-21T22:29:38.633Z,0.10
2018-03-21T22:32:06.704Z,-0.10
2018-03-21T22:34:34.825Z,-0.10
2018-03-21T22:37:02.890Z,0.00
2018-03-21T22:39:30.978Z,0.00
2018-03-21T22:41:59.069Z,-0.20
2018-03-21T22:44:27.160Z,-0.20
2018-03-21T22:46:55.242Z,-0.20
2018-03-21T22:49:23.325Z,-0.20
2018-03-21T22:51:51.396Z,-0.30
2018-03-21T22:54:19.491Z,-0.40
2018-03-21T22:56:47.700Z,-0.30
2018-03-21T22:59:15.849Z,-0.30
2018-03-21T23:01:43.946Z,-0.30
2018-03-21T23:04:12.015Z,-0.30
2018-03-21T23:06:40.124Z,-0.10
2018-03-21T23:09:08.250Z,-0.20
2018-03-21T23:11:37.091Z,-0.40
2018-03-21T23:14:05.172Z,-0.40
2018-03-21T23:16:33.254Z,-0.30
2018-03-21T23:19:01.388Z,-0.30
2018-03-21T23:21:30.544Z,-0.30
2018-03-21T23:24:00.796Z,-0.30
2018-03-21T23:26:30.175Z,-0.40
2018-03-21T23:28:58.375Z,-0.40
2018-03-21T23:31:26.446Z,-0.60
2018-03-21T23:33:55.653Z,-0.60
2018-03-21T23:36:23.721Z,-0.80
2018-03-21T23:38:52.595Z,-0.80
2018-03-21T23:41:20.666Z,-0.80
2018-03-21T23:43:48.758Z,-0.80
2018-03-21T23:46:16.834Z,-0.70
2018-03-21T23:48:44.939Z,-0.70
2018-03-21T23:51:13.020Z,-0.70
2018-03-21T23:53:41.086Z,-0.80
2018-03-21T23:56:09.177Z,-0.70
2018-03-21T23:58:37.348Z,-0.60
